Time;durP1;ratioP1;P1;durP2;ratioP2;P2;SDS_P1;SDS_P2;PMS_P1;PMS_P2;Temp;Humidity;BMP_temperature;BMP_pressure;BME280_temperature;BME280_humidity;BME280_pressure;Samples;Min_cycle;Max_cycle;Signal;HPM_P1;HPM_P2
2022/11/13 00:02:40;;;;;;;0.20;0.20;;;14.90;95.60;;;;;;4217912;27;20081;-61
2022/11/13 00:05:39;;;;;;;0.03;0.03;;;14.90;95.70;;;;;;4225589;28;20100;-61
2022/11/13 00:08:39;;;;;;;0.50;0.50;;;14.90;96.00;;;;;;4225305;27;20055;-61
2022/11/13 00:11:39;;;;;;;0.40;0.40;;;14.90;95.70;;;;;;4225124;27;20050;-61
2022/11/13 00:14:39;;;;;;;0.30;0.30;;;14.80;95.70;;;;;;4225605;27;20474;-61
2022/11/13 00:17:40;;;;;;;0.00;0.00;;;14.80;95.70;;;;;;4225262;27;20084;-61
2022/11/13 00:20:39;;;;;;;2.20;2.10;;;14.80;95.70;;;;;;4224584;27;20096;-61
2022/11/13 00:23:39;;;;;;;0.35;0.35;;;14.80;95.70;;;;;;4208622;27;20055;-61
2022/11/13 00:26:39;;;;;;;1.02;1.02;;;14.80;95.70;;;;;;4208420;27;20055;-61
2022/11/13 00:29:39;;;;;;;0.00;0.00;;;14.80;95.70;;;;;;4207527;27;20406;-61
2022/11/13 00:32:40;;;;;;;0.00;0.00;;;14.80;95.80;;;;;;4208021;27;20058;-63
2022/11/13 00:35:40;;;;;;;0.00;0.00;;;14.80;95.80;;;;;;4208067;27;20075;-61
2022/11/13 00:38:39;;;;;;;0.08;0.08;;;14.80;95.80;;;;;;4222902;27;20062;-62
2022/11/13 00:41:39;;;;;;;0.38;0.38;;;14.70;95.80;;;;;;4224903;28;20054;-61
2022/11/13 00:44:38;;;;;;;0.05;0.05;;;14.70;95.80;;;;;;4225258;28;20096;-61
2022/11/13 00:47:38;;;;;;;0.08;0.08;;;14.70;95.80;;;;;;4224397;28;20070;-61
2022/11/13 00:50:39;;;;;;;0.65;0.65;;;14.70;95.80;;;;;;4223440;28;20058;-62
2022/11/13 00:53:38;;;;;;;0.03;0.03;;;14.70;95.80;;;;;;4224912;27;20070;-61
2022/11/13 00:56:38;;;;;;;0.55;0.55;;;14.70;95.80;;;;;;4225080;27;20051;-61
2022/11/13 00:59:38;;;;;;;0.08;0.08;;;14.70;95.80;;;;;;4224920;28;20096;-61
2022/11/13 01:02:37;;;;;;;0.28;0.28;;;14.70;95.90;;;;;;4225056;28;20497;-61
2022/11/13 01:05:39;;;;;;;1.00;1.00;;;14.70;95.90;;;;;;4225453;28;20050;-61
2022/11/13 01:08:39;;;;;;;0.30;0.30;;;14.70;95.90;;;;;;4224747;28;20343;-61
2022/11/13 01:11:39;;;;;;;1.55;1.17;;;14.60;95.90;;;;;;4224569;28;20455;-61
2022/11/13 01:14:38;;;;;;;0.10;0.10;;;14.70;95.90;;;;;;4224894;28;20523;-62
2022/11/13 01:17:38;;;;;;;0.90;0.70;;;14.60;95.90;;;;;;4224431;27;20457;-62
2022/11/13 01:20:39;;;;;;;0.00;0.00;;;14.60;95.90;;;;;;4211349;27;20051;-61
2022/11/13 01:23:39;;;;;;;0.00;0.00;;;14.60;95.90;;;;;;4227986;27;20058;-61
2022/11/13 01:26:39;;;;;;;0.20;0.20;;;14.60;96.00;;;;;;4227587;27;20047;-61
2022/11/13 01:29:39;;;;;;;0.00;0.00;;;14.60;95.90;;;;;;4227995;27;20551;-61
2022/11/13 01:32:38;;;;;;;0.70;0.70;;;14.60;96.00;;;;;;4210981;27;20054;-61
2022/11/13 01:35:39;;;;;;;0.08;0.08;;;14.60;96.00;;;;;;4211285;27;20050;-61
2022/11/13 01:38:39;;;;;;;0.20;0.20;;;14.60;96.00;;;;;;4217897;27;20078;-61
2022/11/13 01:41:39;;;;;;;0.00;0.00;;;14.50;96.00;;;;;;4227534;28;20147;-61
2022/11/13 01:44:51;;;;;;;0.68;0.68;;;14.50;96.00;;;;;;4228526;27;21123;-60
2022/11/13 01:47:51;;;;;;;0.20;0.20;;;14.50;96.00;;;;;;4227815;27;20076;-61
2022/11/13 01:50:51;;;;;;;0.00;0.00;;;14.50;96.00;;;;;;4219236;27;20097;-61
2022/11/13 01:53:52;;;;;;;0.00;0.00;;;14.50;96.00;;;;;;4227962;27;20428;-61
2022/11/13 01:56:52;;;;;;;0.03;0.03;;;14.50;96.10;;;;;;4227846;27;20205;-61
2022/11/13 01:59:56;;;;;;;0.00;0.00;;;14.50;96.10;;;;;;4227201;27;20067;-61
2022/11/13 02:02:56;;;;;;;0.57;0.57;;;14.50;96.10;;;;;;4227701;27;20146;-61
2022/11/13 02:05:57;;;;;;;0.00;0.00;;;14.50;96.10;;;;;;4227157;27;20100;-61
2022/11/13 02:08:56;;;;;;;0.00;0.00;;;14.50;96.00;;;;;;4226373;27;20139;-61
2022/11/13 02:11:56;;;;;;;0.10;0.10;;;14.50;96.10;;;;;;4227516;27;20109;-61
2022/11/13 02:14:59;;;;;;;0.20;0.20;;;14.50;96.00;;;;;;4226876;27;20534;-61
2022/11/13 02:18:01;;;;;;;0.00;0.00;;;14.50;96.10;;;;;;4225918;27;20568;-61
2022/11/13 02:21:10;;;;;;;0.00;0.00;;;14.50;96.10;;;;;;4227199;27;20058;-61
2022/11/13 02:24:27;;;;;;;0.38;0.38;;;14.50;96.10;;;;;;4227111;27;20073;-61
2022/11/13 02:27:32;;;;;;;0.10;0.10;;;14.40;96.10;;;;;;4210462;27;20070;-61
2022/11/13 02:30:34;;;;;;;0.08;0.08;;;14.50;96.10;;;;;;4210163;27;20104;-61
2022/11/13 02:33:34;;;;;;;;;;;14.50;96.10;;;;;;4211079;27;20059;-61
2022/11/13 02:36:34;;;;;;;0.52;0.52;;;14.50;96.10;;;;;;4221175;27;20030;-61
2022/11/13 02:39:34;;;;;;;0.10;0.10;;;14.40;96.10;;;;;;4227074;27;20104;-62
2022/11/13 02:42:34;;;;;;;0.47;0.47;;;14.40;96.10;;;;;;4226967;27;20103;-62
2022/11/13 02:45:33;;;;;;;0.28;0.28;;;14.40;96.10;;;;;;4226540;27;20228;-61
2022/11/13 02:48:33;;;;;;;0.57;0.57;;;14.40;96.20;;;;;;4226731;28;20066;-61
2022/11/13 02:51:33;;;;;;;0.00;0.00;;;14.40;96.20;;;;;;4218672;27;20421;-61
2022/11/13 02:54:34;;;;;;;0.40;0.40;;;14.40;96.20;;;;;;4212281;27;20058;-61
2022/11/13 02:57:33;;;;;;;0.03;0.03;;;14.40;96.10;;;;;;4226360;27;20112;-61
2022/11/13 03:00:33;;;;;;;0.00;0.00;;;14.40;96.50;;;;;;4226303;27;20470;-61
2022/11/13 03:03:33;;;;;;;0.82;0.82;;;14.40;96.10;;;;;;4242407;27;20446;-61
2022/11/13 03:06:52;;;;;;;0.20;0.20;;;14.40;96.10;;;;;;4226375;27;20152;-61
2022/11/13 03:09:53;;;;;;;0.45;0.45;;;14.40;96.10;;;;;;4225753;27;20074;-61
2022/11/13 03:12:52;;;;;;;0.00;0.00;;;14.40;96.60;;;;;;4227255;27;20493;-61
2022/11/13 03:15:52;;;;;;;0.00;0.00;;;14.40;96.20;;;;;;4250618;27;20142;-61
2022/11/13 03:18:52;;;;;;;0.00;0.00;;;14.30;96.10;;;;;;4259751;27;20115;-62
2022/11/13 03:21:51;;;;;;;4.03;1.45;;;14.30;96.20;;;;;;4248661;27;20098;-61
2022/11/13 03:24:51;;;;;;;0.70;0.70;;;14.30;96.20;;;;;;4246025;27;20050;-61
2022/11/13 03:27:52;;;;;;;0.00;0.00;;;14.30;96.20;;;;;;4260039;27;20125;-61
2022/11/13 03:30:51;;;;;;;1.00;1.00;;;14.30;96.20;;;;;;4259875;27;20098;-60
2022/11/13 03:33:52;;;;;;;0.00;0.00;;;14.30;96.20;;;;;;4225838;27;20066;-61
2022/11/13 03:36:51;;;;;;;1.15;0.90;;;14.30;96.20;;;;;;4225644;27;20055;-61
2022/11/13 03:39:51;;;;;;;0.00;0.00;;;14.30;96.20;;;;;;4225494;27;20062;-60
2022/11/13 03:42:52;;;;;;;0.15;0.15;;;14.40;96.30;;;;;;4234014;27;20054;-60
2022/11/13 03:45:52;;;;;;;0.90;0.90;;;14.30;96.30;;;;;;4241910;27;20425;-61
2022/11/13 03:48:51;;;;;;;0.00;0.00;;;14.30;96.20;;;;;;4242174;27;20769;-61
2022/11/13 03:51:50;;;;;;;0.65;0.65;;;14.30;96.20;;;;;;4241987;27;20517;-61
2022/11/13 03:54:50;;;;;;;0.08;0.08;;;14.30;96.20;;;;;;4213647;28;20403;-59
2022/11/13 03:57:49;;;;;;;0.00;0.00;;;14.30;96.30;;;;;;4241699;27;20053;-62
2022/11/13 04:00:51;;;;;;;0.20;0.20;;;14.30;96.30;;;;;;4241049;27;20505;-61
2022/11/13 04:03:50;;;;;;;0.10;0.10;;;14.30;96.30;;;;;;4225434;27;20382;-61
2022/11/13 04:06:50;;;;;;;0.47;0.47;;;14.30;96.30;;;;;;4225665;27;20440;-60
2022/11/13 04:09:49;;;;;;;1.48;1.42;;;14.30;96.30;;;;;;4224677;27;20047;-61
2022/11/13 04:12:48;;;;;;;0.00;0.00;;;14.30;96.30;;;;;;4235092;27;20401;-61
2022/11/13 04:15:50;;;;;;;0.47;0.47;;;14.30;96.40;;;;;;4241776;27;20520;-61
2022/11/13 04:18:49;;;;;;;1.35;1.35;;;14.30;96.30;;;;;;4225358;28;20077;-61
2022/11/13 04:21:49;;;;;;;0.20;0.20;;;14.30;96.20;;;;;;4241468;27;20398;-61
2022/11/13 04:24:48;;;;;;;1.10;0.65;;;14.20;96.20;;;;;;4241901;27;20092;-61
2022/11/13 04:27:49;;;;;;;0.00;0.00;;;14.30;96.20;;;;;;4241213;27;20524;-61
2022/11/13 04:30:49;;;;;;;0.15;0.15;;;14.20;96.20;;;;;;4241346;27;20054;-61
2022/11/13 04:33:49;;;;;;;0.43;0.43;;;14.30;96.70;;;;;;4241828;27;20050;-61
2022/11/13 04:36:48;;;;;;;0.15;0.15;;;14.20;96.20;;;;;;4258966;27;20138;-61
2022/11/13 04:39:48;;;;;;;0.55;0.55;;;14.20;96.30;;;;;;4258466;27;20061;-61
2022/11/13 04:42:49;;;;;;;0.40;0.40;;;14.20;96.60;;;;;;4241768;28;20078;-61
2022/11/13 04:45:51;;;;;;;0.38;0.38;;;14.20;96.30;;;;;;4195658;28;20055;-61
2022/11/13 04:48:51;;;;;;;1.08;1.05;;;14.20;96.30;;;;;;4225225;27;20586;-61
2022/11/13 04:51:51;;;;;;;0.00;0.00;;;14.20;96.30;;;;;;4234701;27;20091;-61
2022/11/13 04:54:50;;;;;;;0.00;0.00;;;14.20;96.30;;;;;;4227010;28;20054;-61
2022/11/13 04:57:50;;;;;;;0.00;0.00;;;14.20;96.30;;;;;;4228337;28;20051;-60
2022/11/13 05:00:51;;;;;;;0.40;0.40;;;14.20;96.30;;;;;;4244125;27;20394;-61
2022/11/13 05:03:51;;;;;;;0.40;0.40;;;14.20;96.30;;;;;;4244539;27;20099;-61
2022/11/13 05:06:51;;;;;;;0.63;0.63;;;14.20;96.30;;;;;;4245161;27;20075;-61
2022/11/13 05:09:50;;;;;;;0.10;0.10;;;14.20;96.30;;;;;;4244389;27;20074;-61
2022/11/13 05:12:49;;;;;;;0.00;0.00;;;14.30;96.20;;;;;;4244681;27;20561;-61
2022/11/13 05:15:50;;;;;;;0.22;0.22;;;14.40;96.10;;;;;;4228087;27;20078;-60
2022/11/13 05:18:53;;;;;;;0.00;0.00;;;14.40;96.00;;;;;;4227874;28;20082;-61
2022/11/13 05:21:52;;;;;;;0.25;0.25;;;14.40;96.20;;;;;;4225310;27;20058;-61
2022/11/13 05:24:52;;;;;;;0.00;0.00;;;14.40;95.70;;;;;;4227779;27;20146;-61
2022/11/13 05:27:51;;;;;;;0.43;0.43;;;14.40;95.60;;;;;;4227732;27;20179;-60
2022/11/13 05:30:52;;;;;;;0.17;0.17;;;14.40;95.60;;;;;;4239355;27;20065;-61
2022/11/13 05:33:51;;;;;;;0.00;0.00;;;14.40;95.70;;;;;;4247188;27;20099;-61
2022/11/13 05:36:51;;;;;;;0.25;0.25;;;14.30;95.70;;;;;;4261690;27;20053;-61
2022/11/13 05:39:51;;;;;;;0.10;0.10;;;14.30;95.80;;;;;;4254909;27;20065;-61
2022/11/13 05:42:50;;;;;;;0.25;0.25;;;14.20;95.90;;;;;;4245302;27;20862;-61
2022/11/13 05:45:50;;;;;;;0.00;0.00;;;14.20;95.90;;;;;;4248718;27;20042;-60
2022/11/13 05:48:54;;;;;;;0.00;0.00;;;14.20;96.00;;;;;;4261728;27;20141;-61
2022/11/13 05:51:54;;;;;;;0.00;0.00;;;14.20;96.10;;;;;;4237898;27;20054;-61
2022/11/13 05:54:54;;;;;;;1.38;1.15;;;14.20;96.10;;;;;;4211654;28;20059;-61
2022/11/13 05:57:53;;;;;;;0.00;0.00;;;14.10;96.10;;;;;;4227149;27;20104;-61
2022/11/13 06:00:53;;;;;;;0.13;0.13;;;14.10;96.10;;;;;;4231273;27;20050;-61
2022/11/13 06:03:55;;;;;;;0.43;0.43;;;14.10;96.10;;;;;;4243477;27;20401;-61
2022/11/13 06:06:54;;;;;;;;;;;14.10;96.50;;;;;;4244207;27;20413;-60
2022/11/13 06:09:53;;;;;;;0.00;0.00;;;14.20;96.00;;;;;;4227326;28;19962;-61
2022/11/13 06:12:54;;;;;;;0.85;0.85;;;14.30;95.80;;;;;;4215541;28;20196;-61
2022/11/13 06:15:55;;;;;;;0.57;0.57;;;14.40;95.50;;;;;;4242906;27;20046;-61
2022/11/13 06:18:57;;;;;;;2.30;1.05;;;14.40;94.90;;;;;;4238274;27;20532;-61
2022/11/13 06:21:57;;;;;;;0.03;0.03;;;14.50;95.10;;;;;;4226790;28;20115;-61
2022/11/13 06:24:56;;;;;;;0.00;0.00;;;14.50;95.10;;;;;;4261037;27;20519;-61
2022/11/13 06:27:56;;;;;;;0.20;0.20;;;14.50;95.00;;;;;;4226084;28;20554;-61
2022/11/13 06:30:56;;;;;;;0.00;0.00;;;14.50;94.90;;;;;;4226732;28;20143;-61
2022/11/13 06:33:58;;;;;;;2.63;1.08;;;14.60;94.80;;;;;;4259441;27;20077;-61
2022/11/13 06:36:57;;;;;;;0.13;0.13;;;14.50;94.70;;;;;;4226669;27;20062;-61
2022/11/13 06:39:59;;;;;;;0.57;0.57;;;14.50;94.60;;;;;;4226401;27;20113;-60
2022/11/13 06:42:59;;;;;;;1.02;0.22;;;14.50;94.60;;;;;;4230508;27;20053;-61
2022/11/13 06:45:59;;;;;;;0.00;0.00;;;14.50;94.60;;;;;;4242033;27;20180;-61
2022/11/13 06:48:59;;;;;;;0.73;0.73;;;14.50;94.50;;;;;;4243017;27;20050;-61
2022/11/13 06:51:59;;;;;;;1.15;0.68;;;14.60;94.40;;;;;;4241536;27;20509;-61
2022/11/13 06:55:00;;;;;;;0.10;0.10;;;14.60;94.20;;;;;;4241468;27;20081;-61
2022/11/13 06:57:59;;;;;;;0.00;0.00;;;14.60;94.30;;;;;;4242085;27;20050;-61
2022/11/13 07:01:05;;;;;;;0.73;0.73;;;14.60;94.40;;;;;;4243440;27;20565;-62
2022/11/13 07:04:09;;;;;;;0.22;0.13;;;14.60;94.00;;;;;;4227574;27;20459;-61
2022/11/13 07:07:08;;;;;;;0.20;0.20;;;14.70;93.90;;;;;;4242799;27;20050;-61
2022/11/13 07:10:08;;;;;;;0.32;0.25;;;14.70;93.90;;;;;;4238331;27;20066;-61
2022/11/13 07:13:08;;;;;;;0.93;0.75;;;14.70;93.90;;;;;;4244132;27;20050;-61
2022/11/13 07:16:09;;;;;;;0.10;0.10;;;14.80;93.80;;;;;;4242150;27;20563;-61
2022/11/13 07:19:17;;;;;;;0.00;0.00;;;14.80;93.60;;;;;;4241412;27;20050;-61
2022/11/13 07:22:16;;;;;;;0.10;0.10;;;14.80;93.50;;;;;;4224847;28;20062;-61
2022/11/13 07:25:16;;;;;;;0.00;0.00;;;14.80;93.50;;;;;;4208500;27;20078;-61
2022/11/13 07:28:15;;;;;;;0.28;0.28;;;14.80;93.50;;;;;;4225085;27;20177;-61
2022/11/13 07:31:17;;;;;;;0.00;0.00;;;14.80;93.40;;;;;;4224715;28;20551;-60
2022/11/13 07:34:18;;;;;;;0.20;0.20;;;14.80;93.20;;;;;;4225722;27;20051;-61
2022/11/13 07:37:17;;;;;;;0.08;0.08;;;14.80;93.10;;;;;;4225050;28;20092;-60
2022/11/13 07:40:17;;;;;;;0.10;0.10;;;14.80;93.00;;;;;;4225458;27;20062;-61
2022/11/13 07:43:17;;;;;;;0.57;0.57;;;14.80;93.00;;;;;;4236769;27;20450;-61
2022/11/13 07:46:16;;;;;;;0.20;0.20;;;14.80;92.90;;;;;;4242732;27;20050;-61
2022/11/13 07:49:17;;;;;;;0.47;0.35;;;14.80;92.80;;;;;;4242538;27;20143;-61
2022/11/13 07:52:17;;;;;;;2.38;0.95;;;14.80;92.80;;;;;;4239353;27;20062;-61
2022/11/13 07:55:16;;;;;;;0.43;0.43;;;14.80;92.80;;;;;;4242177;27;20062;-62
2022/11/13 07:58:16;;;;;;;0.00;0.00;;;14.80;92.70;;;;;;4242648;27;20054;-62
2022/11/13 08:01:16;;;;;;;0.00;0.00;;;14.80;92.60;;;;;;4225410;28;20477;-62
2022/11/13 08:04:17;;;;;;;0.00;0.00;;;14.80;92.40;;;;;;4224464;28;20402;-62
2022/11/13 08:07:16;;;;;;;0.00;0.00;;;14.80;92.30;;;;;;4225085;27;20043;-62
2022/11/13 08:10:16;;;;;;;0.00;0.00;;;14.80;92.60;;;;;;4224651;27;20315;-62
2022/11/13 08:13:16;;;;;;;0.98;0.98;;;14.80;92.50;;;;;;4238521;27;20080;-62
2022/11/13 08:16:15;;;;;;;0.00;0.00;;;14.80;92.40;;;;;;4225510;28;20050;-62
2022/11/13 08:19:17;;;;;;;1.23;1.17;;;14.80;92.30;;;;;;4241879;27;20126;-63
2022/11/13 08:22:16;;;;;;;0.63;0.40;;;14.80;92.30;;;;;;4243852;27;20119;-62
2022/11/13 08:25:16;;;;;;;0.00;0.00;;;14.90;92.20;;;;;;4238034;27;20061;-63
2022/11/13 08:28:16;;;;;;;0.45;0.45;;;14.90;92.00;;;;;;4227445;28;20066;-62
2022/11/13 08:31:17;;;;;;;0.52;0.52;;;14.90;91.90;;;;;;4224811;28;20050;-62
2022/11/13 08:34:17;;;;;;;0.03;0.03;;;15.00;91.80;;;;;;4224410;28;20055;-62
2022/11/13 08:37:17;;;;;;;0.63;0.63;;;15.00;91.70;;;;;;4240947;27;20050;-62
2022/11/13 08:40:17;;;;;;;0.80;0.80;;;15.10;91.60;;;;;;4224081;28;20051;-62
2022/11/13 08:43:17;;;;;;;0.47;0.47;;;15.10;91.50;;;;;;4223176;27;20047;-62
2022/11/13 08:46:16;;;;;;;0.32;0.32;;;15.10;91.40;;;;;;4237304;27;20505;-62
2022/11/13 08:49:17;;;;;;;0.00;0.00;;;15.00;91.40;;;;;;4229056;28;20069;-62
2022/11/13 08:52:17;;;;;;;0.25;0.25;;;15.00;91.40;;;;;;4235652;28;20095;-63
2022/11/13 08:55:16;;;;;;;0.00;0.00;;;14.90;91.60;;;;;;4236075;27;20114;-62
2022/11/13 08:58:16;;;;;;;0.80;0.80;;;14.90;91.70;;;;;;4239350;28;20095;-60
2022/11/13 09:01:16;;;;;;;0.03;0.03;;;15.00;91.60;;;;;;4240307;28;20414;-60
2022/11/13 09:04:17;;;;;;;0.20;0.20;;;15.00;91.50;;;;;;4240742;28;20219;-62
2022/11/13 09:07:16;;;;;;;0.43;0.43;;;15.00;91.30;;;;;;4237015;27;20042;-60
2022/11/13 09:10:17;;;;;;;0.15;0.15;;;15.00;91.60;;;;;;4235980;27;20081;-61
2022/11/13 09:13:16;;;;;;;0.28;0.28;;;15.00;91.20;;;;;;4230260;27;20494;-61
2022/11/13 09:16:16;;;;;;;0.30;0.30;;;15.00;91.30;;;;;;4220794;28;20062;-63
2022/11/13 09:19:17;;;;;;;0.30;0.30;;;15.00;91.40;;;;;;4239489;27;20046;-62
2022/11/13 09:22:17;;;;;;;0.10;0.10;;;14.90;91.40;;;;;;4239301;27;20099;-62
2022/11/13 09:25:17;;;;;;;0.20;0.20;;;14.90;91.50;;;;;;4232878;27;20104;-62
2022/11/13 09:28:16;;;;;;;1.02;1.02;;;14.80;91.50;;;;;;4241334;27;20546;-61
2022/11/13 09:31:16;;;;;;;0.47;0.47;;;14.80;91.60;;;;;;4224387;28;20069;-62
2022/11/13 09:34:17;;;;;;;0.73;0.73;;;14.80;91.70;;;;;;4224150;28;20463;-62
2022/11/13 09:37:17;;;;;;;0.45;0.45;;;14.80;91.90;;;;;;4223887;28;20114;-61
2022/11/13 09:40:27;;;;;;;0.20;0.20;;;15.30;91.50;;;;;;4226378;28;20092;-62
2022/11/13 09:43:33;;;;;;;0.28;0.28;;;16.10;90.10;;;;;;4244759;27;20050;-62
2022/11/13 09:46:38;;;;;;;0.20;0.20;;;17.00;87.00;;;;;;4242238;27;20058;-63
2022/11/13 09:49:44;;;;;;;1.00;1.00;;;17.80;83.30;;;;;;4240494;27;20074;-61
2022/11/13 09:52:45;;;;;;;0.30;0.30;;;18.50;79.90;;;;;;4243660;27;20103;-62
2022/11/13 09:55:56;;;;;;;0.57;0.57;;;19.10;77.00;;;;;;4243718;27;20073;-63
2022/11/13 09:59:06;;;;;;;0.60;0.60;;;19.50;74.70;;;;;;4230466;27;20073;-62
2022/11/13 10:02:17;;;;;;;0.20;0.20;;;19.80;72.90;;;;;;4227523;27;20440;-63
2022/11/13 10:05:26;;;;;;;1.45;0.80;;;19.80;72.30;;;;;;4227157;27;20051;-61
2022/11/13 10:08:29;;;;;;;0.10;0.10;;;19.70;72.80;;;;;;4242668;27;20661;-61
2022/11/13 10:11:36;;;;;;;0.03;0.03;;;19.50;73.50;;;;;;4227588;27;20046;-60
2022/11/13 10:14:38;;;;;;;0.40;0.40;;;19.30;74.60;;;;;;4242750;27;20367;-61
2022/11/13 10:17:41;;;;;;;0.10;0.10;;;18.90;75.60;;;;;;4242096;27;20696;-61
2022/11/13 10:20:47;;;;;;;1.00;1.00;;;18.70;76.80;;;;;;4243232;27;20151;-62
2022/11/13 10:23:55;;;;;;;0.10;0.10;;;18.50;77.80;;;;;;4211321;28;20048;-62
2022/11/13 10:26:58;;;;;;;0.15;0.15;;;18.50;78.50;;;;;;4209635;28;20062;-62
2022/11/13 10:29:57;;;;;;;3.03;1.23;;;18.50;78.50;;;;;;4225056;28;20086;-62
2022/11/13 10:33:02;;;;;;;0.38;0.38;;;18.50;78.20;;;;;;4226119;27;20062;-63
2022/11/13 10:36:15;;;;;;;0.00;0.00;;;18.60;78.00;;;;;;4237015;27;20061;-61
2022/11/13 10:39:15;;;;;;;0.10;0.10;;;18.70;77.60;;;;;;4213745;28;20059;-62
2022/11/13 10:42:23;;;;;;;0.13;0.13;;;18.70;78.00;;;;;;4240682;27;20096;-61
2022/11/13 10:45:23;;;;;;;0.30;0.30;;;18.80;76.90;;;;;;4234834;27;20054;-63
2022/11/13 10:48:27;;;;;;;0.95;0.95;;;18.80;76.60;;;;;;4243007;27;20042;-62
2022/11/13 10:51:30;;;;;;;0.05;0.05;;;18.90;76.30;;;;;;4230733;27;20050;-63
2022/11/13 10:54:31;;;;;;;0.03;0.03;;;18.90;76.00;;;;;;4226026;27;20095;-60
2022/11/13 10:57:33;;;;;;;0.17;0.17;;;18.90;75.80;;;;;;4225391;27;20108;-60
2022/11/13 11:00:35;;;;;;;0.10;0.10;;;19.00;75.60;;;;;;4229534;27;20050;-60
2022/11/13 11:03:34;;;;;;;1.75;1.35;;;18.90;75.60;;;;;;4243161;27;20050;-60
2022/11/13 11:06:37;;;;;;;0.10;0.10;;;18.90;75.90;;;;;;4239542;27;20069;-62
2022/11/13 11:09:56;;;;;;;0.25;0.25;;;18.90;76.10;;;;;;4237508;27;20462;-60
2022/11/13 11:12:59;;;;;;;0.00;0.00;;;18.90;76.10;;;;;;4243004;27;20054;-60
2022/11/13 11:16:02;;;;;;;0.43;0.43;;;19.00;75.80;;;;;;4242793;27;20050;-60
2022/11/13 11:19:04;;;;;;;0.00;0.00;;;19.10;75.50;;;;;;4226031;27;20085;-60
2022/11/13 11:22:13;;;;;;;0.35;0.35;;;19.10;75.50;;;;;;4237707;27;20046;-61
2022/11/13 11:25:16;;;;;;;0.30;0.30;;;19.10;75.80;;;;;;4242783;27;20065;-61
2022/11/13 11:28:26;;;;;;;0.20;0.20;;;19.00;76.10;;;;;;4228692;27;20151;-60
2022/11/13 11:31:32;;;;;;;0.20;0.20;;;19.00;76.40;;;;;;4242697;27;20146;-61
2022/11/13 11:34:36;;;;;;;1.05;1.05;;;18.90;76.70;;;;;;4242495;27;20127;-61
2022/11/13 11:37:44;;;;;;;0.32;0.32;;;18.90;77.10;;;;;;4226544;27;20497;-61
2022/11/13 11:40:47;;;;;;;0.10;0.10;;;18.80;77.50;;;;;;4242172;27;20089;-60
2022/11/13 11:43:57;;;;;;;0.20;0.20;;;18.70;77.70;;;;;;4229800;27;20107;-60
2022/11/13 11:46:56;;;;;;;0.35;0.35;;;18.60;78.30;;;;;;4216990;28;20097;-60
2022/11/13 11:49:57;;;;;;;0.20;0.20;;;18.60;78.60;;;;;;4202289;28;20135;-61
2022/11/13 11:53:05;;;;;;;0.10;0.10;;;18.60;79.20;;;;;;4225043;28;20180;-60
2022/11/13 11:56:19;;;;;;;0.03;0.03;;;18.40;79.60;;;;;;4230278;27;20058;-61
2022/11/13 11:59:31;;;;;;;0.32;0.32;;;18.40;79.80;;;;;;4234099;27;20054;-61
2022/11/13 12:03:00;;;;;;;0.00;0.00;;;18.30;79.60;;;;;;4231036;27;20409;-61
2022/11/13 12:06:07;;;;;;;0.10;0.10;;;18.20;80.00;;;;;;4239010;27;20406;-61
2022/11/13 12:09:18;;;;;;;0.00;0.00;;;18.10;80.80;;;;;;4241813;27;20529;-61
2022/11/13 12:12:30;;;;;;;0.83;0.83;;;18.00;81.40;;;;;;4225051;28;20051;-61
2022/11/13 12:15:33;;;;;;;;;;;17.90;82.20;;;;;;4218502;27;20100;-62
2022/11/13 12:18:44;;;;;;;0.30;0.30;;;17.80;82.60;;;;;;4241937;27;20063;-62
2022/11/13 12:21:54;;;;;;;0.63;0.63;;;17.80;84.10;;;;;;4228602;27;20054;-62
2022/11/13 12:25:12;;;;;;;1.25;1.25;;;17.60;83.80;;;;;;4245824;27;20058;-62
2022/11/13 12:28:18;;;;;;;0.17;0.17;;;17.60;84.60;;;;;;4258466;27;20061;-62
2022/11/13 12:31:37;;;;;;;0.00;0.00;;;17.50;85.00;;;;;;4217141;28;20444;-64
2022/11/13 12:34:43;;;;;;;0.35;0.35;;;17.40;85.50;;;;;;4224339;28;21632;-69
2022/11/13 12:37:51;;;;;;;0.32;0.32;;;17.40;86.20;;;;;;4240477;27;20512;-65
2022/11/13 12:40:58;;;;;;;0.50;0.22;;;17.20;86.60;;;;;;4249140;27;20095;-63
2022/11/13 12:44:15;;;;;;;0.20;0.20;;;17.20;87.10;;;;;;4209298;27;20087;-64
2022/11/13 12:47:15;;;;;;;0.10;0.10;;;17.10;87.50;;;;;;4235640;27;20099;-64
2022/11/13 12:50:25;;;;;;;0.47;0.47;;;17.10;87.70;;;;;;4251423;27;20405;-64
2022/11/13 12:53:43;;;;;;;1.48;0.88;;;17.00;88.20;;;;;;4219330;27;20455;-64
2022/11/13 12:56:44;;;;;;;0.40;0.40;;;16.90;88.10;;;;;;4234895;27;20050;-64
2022/11/13 12:59:47;;;;;;;0.85;0.85;;;16.90;88.80;;;;;;4241311;27;20489;-64
2022/11/13 13:03:00;;;;;;;0.75;0.75;;;16.90;89.30;;;;;;4241658;28;20534;-63
2022/11/13 13:06:23;;;;;;;0.10;0.10;;;16.80;89.70;;;;;;4241883;27;20127;-66
2022/11/13 13:09:34;;;;;;;1.85;1.45;;;16.80;90.00;;;;;;4241303;27;20150;-66
2022/11/13 13:12:46;;;;;;;0.00;0.00;;;16.70;90.00;;;;;;4243038;27;20130;-66
2022/11/13 13:15:54;;;;;;;0.00;0.00;;;16.70;90.00;;;;;;4255613;27;20064;-66
2022/11/13 13:19:05;;;;;;;1.17;1.17;;;16.60;89.70;;;;;;4239923;27;20154;-66
2022/11/13 13:22:11;;;;;;;0.00;0.00;;;16.60;90.00;;;;;;4239678;27;20062;-66
2022/11/13 13:25:25;;;;;;;0.00;0.00;;;16.60;89.60;;;;;;4226810;28;20058;-64
2022/11/13 13:28:27;;;;;;;0.00;0.00;;;16.50;89.80;;;;;;4227790;28;20096;-65
2022/11/13 13:31:37;;;;;;;1.60;1.60;;;16.50;89.70;;;;;;4232981;27;20154;-64
2022/11/13 13:34:46;;;;;;;0.00;0.00;;;16.40;89.20;;;;;;4243636;27;20054;-62
2022/11/13 13:37:54;;;;;;;0.08;0.08;;;16.40;89.80;;;;;;4244918;27;20050;-63
2022/11/13 13:41:15;;;;;;;8.68;1.55;;;16.40;90.00;;;;;;4227370;28;20066;-62
2022/11/13 13:44:42;;;;;;;0.00;0.00;;;16.40;90.00;;;;;;4227940;27;21649;-64
2022/11/13 13:47:46;;;;;;;0.25;0.25;;;16.30;89.80;;;;;;4236926;27;20050;-63
2022/11/13 13:50:48;;;;;;;0.77;0.77;;;16.30;90.10;;;;;;4223963;27;20417;-63
2022/11/13 13:53:49;;;;;;;0.10;0.10;;;16.30;90.00;;;;;;4250372;27;20135;-63
2022/11/13 13:56:50;;;;;;;0.00;0.00;;;16.30;90.30;;;;;;4225598;28;20055;-63
2022/11/13 13:59:54;;;;;;;0.70;0.70;;;16.30;90.40;;;;;;4217919;27;20382;-63
2022/11/13 14:02:55;;;;;;;0.17;0.17;;;16.30;90.40;;;;;;4242495;27;20058;-63
2022/11/13 14:05:55;;;;;;;0.20;0.20;;;16.30;90.50;;;;;;4250423;27;20138;-63
2022/11/13 14:09:08;;;;;;;0.40;0.40;;;16.30;90.60;;;;;;4242957;27;20053;-63
2022/11/13 14:12:18;;;;;;;0.00;0.00;;;16.20;90.70;;;;;;4238294;27;20069;-63
2022/11/13 14:15:26;;;;;;;0.00;0.00;;;16.20;90.80;;;;;;4244511;27;20130;-62
2022/11/13 14:18:26;;;;;;;0.03;0.03;;;16.20;90.60;;;;;;4242286;27;20058;-62
2022/11/13 14:21:25;;;;;;;0.20;0.20;;;16.30;90.70;;;;;;4216876;28;20131;-60
2022/11/13 14:24:28;;;;;;;0.38;0.38;;;16.30;90.90;;;;;;4243356;27;20402;-61
2022/11/13 14:27:29;;;;;;;0.08;0.08;;;16.30;91.10;;;;;;4226409;28;20555;-60
2022/11/13 14:30:31;;;;;;;0.38;0.38;;;16.30;91.30;;;;;;4240693;27;20050;-60
2022/11/13 14:33:34;;;;;;;0.00;0.00;;;16.30;91.40;;;;;;4234108;27;20054;-60
2022/11/13 14:36:36;;;;;;;0.77;0.77;;;16.30;91.60;;;;;;4226563;27;20093;-60
2022/11/13 14:39:35;;;;;;;0.00;0.00;;;16.30;91.50;;;;;;4226189;28;20051;-60
2022/11/13 14:42:37;;;;;;;1.00;1.00;;;16.30;91.70;;;;;;4240481;27;20474;-61
2022/11/13 14:45:39;;;;;;;0.10;0.10;;;16.30;91.90;;;;;;4242430;27;20058;-61
2022/11/13 14:48:38;;;;;;;0.43;0.22;;;16.30;92.00;;;;;;4238410;27;20096;-61
2022/11/13 14:51:39;;;;;;;0.65;0.65;;;16.40;91.80;;;;;;4235979;27;20501;-61
2022/11/13 14:54:38;;;;;;;0.00;0.00;;;16.40;91.60;;;;;;4226077;28;20107;-63
2022/11/13 14:57:58;;;;;;;0.10;0.10;;;16.30;91.50;;;;;;4242995;27;20549;-64
2022/11/13 15:01:11;;;;;;;0.47;0.47;;;16.30;91.50;;;;;;4242980;27;20513;-62
2022/11/13 15:04:11;;;;;;;0.20;0.20;;;16.30;91.20;;;;;;4242485;27;20401;-64
2022/11/13 15:07:25;;;;;;;0.20;0.20;;;16.30;91.20;;;;;;4232911;27;20049;-63
2022/11/13 15:10:30;;;;;;;0.52;0.52;;;16.30;91.50;;;;;;4198830;28;20047;-63
2022/11/13 15:13:29;;;;;;;0.05;0.05;;;16.20;91.50;;;;;;4228014;27;20614;-63
2022/11/13 15:16:31;;;;;;;0.30;0.30;;;16.20;91.30;;;;;;4242173;27;20069;-63
2022/11/13 15:19:33;;;;;;;0.75;0.75;;;16.20;91.40;;;;;;4225859;27;20054;-63
2022/11/13 15:22:32;;;;;;;0.05;0.05;;;16.20;91.70;;;;;;4241792;27;20050;-63
2022/11/13 15:25:32;;;;;;;0.88;0.88;;;16.20;91.30;;;;;;4244068;27;20496;-63
2022/11/13 15:28:31;;;;;;;0.93;0.93;;;16.20;92.10;;;;;;4242155;27;20050;-63
2022/11/13 15:31:36;;;;;;;0.85;0.85;;;16.30;92.70;;;;;;4242817;27;20058;-63
2022/11/13 15:34:35;;;;;;;0.43;0.43;;;16.40;92.60;;;;;;4247757;27;20058;-63
2022/11/13 15:37:35;;;;;;;0.70;0.70;;;16.50;92.40;;;;;;4246437;27;20054;-63
2022/11/13 15:40:34;;;;;;;0.00;0.00;;;16.50;92.10;;;;;;4225755;28;20551;-63
2022/11/13 15:43:34;;;;;;;0.38;0.38;;;16.60;92.10;;;;;;4225105;28;20059;-63
2022/11/13 15:46:35;;;;;;;0.00;0.00;;;16.60;92.00;;;;;;4243144;27;20108;-64
2022/11/13 15:49:35;;;;;;;0.32;0.32;;;16.60;92.20;;;;;;4221902;28;20051;-63
2022/11/13 15:52:38;;;;;;;0.20;0.20;;;16.70;92.00;;;;;;4221669;28;20572;-63